Portada
METAR-TAF:

METAR-TAF

Aeroports :

Biskra, Algèria

latitud: 34-48N, longitud: 005-44E, altitud: 87 m

Observació

L'informe es va fer fa 33 minuts, a les 20:00 UTC
Vent 4 kt del Sud-Est
Temperatura 35°C
Humitat 27%
Pressió 1013 hPa
Visibilitat 10 km o més
Escasses núvols a una alçada de 4000 ft

METAR: DAUB 192000Z 14004KT 9999 FEW040 35/13 Q1013

Hora: 21:33 (20:33 UTC)

Pronòstic

L'informe es va fer fa 3 hores i 33 minuts, a les 17:00 UTC
Pronòstic vàlid del 19 a les 18 UTC al 20 a les 18 UTC
Vent 15 kt del Sud
Visibilitat 10 km o més
Escasses núvols a una alçada de 4000 ft
Probabilitat 30% :
Temporalment
l' 19 a les 18 UTC al 19 a les 22 UTC
Vent 15 kt del Sud amb ràfegues de 25 kt
Visibilitat: 2000 m
Escasses núvols a una alçada de 3000 ft, Cumulus congestus.
torb baixa de sorra
Evolucionant progressivament
l' 19 a les 20 UTC al 19 a les 22 UTC
Vent 8 kt del Nord

TAF: DAUB 191700Z 1918/2018 17015KT 9999 FEW040 PROB30 TEMPO 1918/1922 17015G25KT 2000 DRSA FEW030TCU BECMG 1920/1922 01008KT

Observacions i pronòstics meteorològics de més de 4000 aeroports (METAR i TAF).

Les estacions disponibles són els punts grocs i vermells al mapa.

Posi el ratolí al punt desitjat per veure el nom de l'estació.

Feu clic per veure les observacions i els pronòstics meteorològics.

Per canviar el mapa: feu clic els botons verds amb una creu de color negre per apropar; al botó verd amb un guió per allunyar la imatge; o en les fletxes verdes per a mapes adjacents.


METAR-TAF: